sensor_id;sensor_type;location;lat;lon;timestamp;temperature;humidity
25716;DHT22;13573;50.936;4.328;2023-03-05T00:00:19;6.00;99.90
25716;DHT22;13573;50.936;4.328;2023-03-05T00:02:46;7.40;99.90
25716;DHT22;13573;50.936;4.328;2023-03-05T00:05:13;6.80;99.90
25716;DHT22;13573;50.936;4.328;2023-03-05T00:07:39;7.00;99.90
25716;DHT22;13573;50.936;4.328;2023-03-05T00:10:07;7.50;99.90
25716;DHT22;13573;50.936;4.328;2023-03-05T00:12:33;6.90;99.90
25716;DHT22;13573;50.936;4.328;2023-03-05T00:15:00;7.20;99.90
25716;DHT22;13573;50.936;4.328;2023-03-05T00:17:26;7.30;99.90
25716;DHT22;13573;50.936;4.328;2023-03-05T00:19:53;7.30;99.90
25716;DHT22;13573;50.936;4.328;2023-03-05T00:22:22;7.00;99.90
25716;DHT22;13573;50.936;4.328;2023-03-05T00:24:50;7.40;99.90
25716;DHT22;13573;50.936;4.328;2023-03-05T00:27:16;7.00;99.90
25716;DHT22;13573;50.936;4.328;2023-03-05T00:29:43;7.20;99.90
25716;DHT22;13573;50.936;4.328;2023-03-05T00:32:10;7.50;99.90
25716;DHT22;13573;50.936;4.328;2023-03-05T00:34:36;7.00;99.90
25716;DHT22;13573;50.936;4.328;2023-03-05T00:37:03;7.00;99.90
25716;DHT22;13573;50.936;4.328;2023-03-05T00:39:31;7.10;99.90
25716;DHT22;13573;50.936;4.328;2023-03-05T00:41:58;6.60;99.90
25716;DHT22;13573;50.936;4.328;2023-03-05T00:44:25;6.60;99.90
25716;DHT22;13573;50.936;4.328;2023-03-05T00:46:51;7.40;99.90
25716;DHT22;13573;50.936;4.328;2023-03-05T00:49:18;6.50;99.90
25716;DHT22;13573;50.936;4.328;2023-03-05T00:51:45;6.10;99.90
25716;DHT22;13573;50.936;4.328;2023-03-05T00:54:11;6.60;99.90
25716;DHT22;13573;50.936;4.328;2023-03-05T00:56:38;6.80;99.90
25716;DHT22;13573;50.936;4.328;2023-03-05T00:59:05;6.80;99.90
25716;DHT22;13573;50.936;4.328;2023-03-05T01:01:31;7.00;99.90
25716;DHT22;13573;50.936;4.328;2023-03-05T01:03:59;7.20;99.90
25716;DHT22;13573;50.936;4.328;2023-03-05T01:06:26;6.90;99.90
25716;DHT22;13573;50.936;4.328;2023-03-05T01:08:54;6.20;99.90
25716;DHT22;13573;50.936;4.328;2023-03-05T01:11:21;6.50;99.90
25716;DHT22;13573;50.936;4.328;2023-03-05T01:13:49;6.90;99.90
25716;DHT22;13573;50.936;4.328;2023-03-05T01:16:16;6.90;99.90
25716;DHT22;13573;50.936;4.328;2023-03-05T01:18:42;5.70;99.90
25716;DHT22;13573;50.936;4.328;2023-03-05T01:21:09;6.70;99.90
25716;DHT22;13573;50.936;4.328;2023-03-05T01:23:36;7.20;99.90
25716;DHT22;13573;50.936;4.328;2023-03-05T01:26:03;6.90;99.90
25716;DHT22;13573;50.936;4.328;2023-03-05T01:28:30;7.20;99.90
25716;DHT22;13573;50.936;4.328;2023-03-05T01:30:57;7.10;99.90
25716;DHT22;13573;50.936;4.328;2023-03-05T01:33:24;6.80;99.90
25716;DHT22;13573;50.936;4.328;2023-03-05T01:35:51;6.40;99.90
25716;DHT22;13573;50.936;4.328;2023-03-05T01:38:17;6.40;99.90
25716;DHT22;13573;50.936;4.328;2023-03-05T01:40:44;6.40;99.90
25716;DHT22;13573;50.936;4.328;2023-03-05T01:43:28;6.40;99.90
25716;DHT22;13573;50.936;4.328;2023-03-05T01:48:33;6.50;99.90
25716;DHT22;13573;50.936;4.328;2023-03-05T01:51:00;6.20;99.90
25716;DHT22;13573;50.936;4.328;2023-03-05T01:53:29;6.20;99.90
25716;DHT22;13573;50.936;4.328;2023-03-05T01:55:56;6.30;99.90
25716;DHT22;13573;50.936;4.328;2023-03-05T01:58:24;6.60;99.90
25716;DHT22;13573;50.936;4.328;2023-03-05T02:00:52;6.30;99.90
25716;DHT22;13573;50.936;4.328;2023-03-05T02:03:21;4.80;99.90
25716;DHT22;13573;50.936;4.328;2023-03-05T02:05:48;5.30;99.90
25716;DHT22;13573;50.936;4.328;2023-03-05T02:08:17;6.70;99.90
25716;DHT22;13573;50.936;4.328;2023-03-05T02:10:47;6.50;99.90
25716;DHT22;13573;50.936;4.328;2023-03-05T02:13:19;5.80;99.90
25716;DHT22;13573;50.936;4.328;2023-03-05T02:15:49;5.70;99.90
25716;DHT22;13573;50.936;4.328;2023-03-05T02:18:17;5.80;99.90
25716;DHT22;13573;50.936;4.328;2023-03-05T02:20:48;5.70;99.90
25716;DHT22;13573;50.936;4.328;2023-03-05T02:23:17;6.10;99.90
25716;DHT22;13573;50.936;4.328;2023-03-05T02:25:44;5.90;99.90
25716;DHT22;13573;50.936;4.328;2023-03-05T02:28:17;6.10;99.90
25716;DHT22;13573;50.936;4.328;2023-03-05T02:30:44;5.80;99.90
25716;DHT22;13573;50.936;4.328;2023-03-05T02:33:13;5.80;99.90
25716;DHT22;13573;50.936;4.328;2023-03-05T02:35:41;6.10;99.90
25716;DHT22;13573;50.936;4.328;2023-03-05T02:38:09;5.90;99.90
25716;DHT22;13573;50.936;4.328;2023-03-05T02:40:36;6.00;99.90
25716;DHT22;13573;50.936;4.328;2023-03-05T02:43:04;5.60;99.90
25716;DHT22;13573;50.936;4.328;2023-03-05T02:45:31;5.80;99.90
25716;DHT22;13573;50.936;4.328;2023-03-05T02:47:58;5.40;99.90
25716;DHT22;13573;50.936;4.328;2023-03-05T02:50:27;6.00;99.90
25716;DHT22;13573;50.936;4.328;2023-03-05T02:52:54;5.50;99.90
25716;DHT22;13573;50.936;4.328;2023-03-05T02:55:20;5.40;99.90
25716;DHT22;13573;50.936;4.328;2023-03-05T02:57:47;5.40;99.90
25716;DHT22;13573;50.936;4.328;2023-03-05T03:00:15;5.60;99.90
25716;DHT22;13573;50.936;4.328;2023-03-05T03:02:42;5.90;99.90
25716;DHT22;13573;50.936;4.328;2023-03-05T03:05:09;6.30;99.90
25716;DHT22;13573;50.936;4.328;2023-03-05T03:07:35;5.80;99.90
25716;DHT22;13573;50.936;4.328;2023-03-05T03:10:03;6.50;99.90
25716;DHT22;13573;50.936;4.328;2023-03-05T03:12:30;5.90;99.90
25716;DHT22;13573;50.936;4.328;2023-03-05T03:14:56;6.10;99.90
25716;DHT22;13573;50.936;4.328;2023-03-05T03:17:25;6.50;99.90
25716;DHT22;13573;50.936;4.328;2023-03-05T03:22:18;5.80;99.90
25716;DHT22;13573;50.936;4.328;2023-03-05T03:24:45;5.60;99.90
25716;DHT22;13573;50.936;4.328;2023-03-05T03:27:12;5.20;99.90
25716;DHT22;13573;50.936;4.328;2023-03-05T03:29:38;5.70;99.90
25716;DHT22;13573;50.936;4.328;2023-03-05T03:32:05;5.90;99.90
25716;DHT22;13573;50.936;4.328;2023-03-05T03:34:33;4.10;99.90
25716;DHT22;13573;50.936;4.328;2023-03-05T03:37:00;5.70;99.90
25716;DHT22;13573;50.936;4.328;2023-03-05T03:39:27;5.50;99.90
25716;DHT22;13573;50.936;4.328;2023-03-05T03:41:54;5.70;99.90
25716;DHT22;13573;50.936;4.328;2023-03-05T03:44:22;5.70;99.90
25716;DHT22;13573;50.936;4.328;2023-03-05T03:46:50;5.90;99.90
25716;DHT22;13573;50.936;4.328;2023-03-05T03:49:20;5.70;99.90
25716;DHT22;13573;50.936;4.328;2023-03-05T03:51:48;5.40;99.90
25716;DHT22;13573;50.936;4.328;2023-03-05T03:54:17;5.40;99.90
25716;DHT22;13573;50.936;4.328;2023-03-05T03:56:44;5.30;99.90
25716;DHT22;13573;50.936;4.328;2023-03-05T03:59:11;5.70;99.90
25716;DHT22;13573;50.936;4.328;2023-03-05T04:01:39;5.70;99.90
25716;DHT22;13573;50.936;4.328;2023-03-05T04:04:06;5.70;99.90
25716;DHT22;13573;50.936;4.328;2023-03-05T04:06:33;5.90;99.90
25716;DHT22;13573;50.936;4.328;2023-03-05T04:09:00;5.50;99.90
25716;DHT22;13573;50.936;4.328;2023-03-05T04:11:27;5.40;99.90
25716;DHT22;13573;50.936;4.328;2023-03-05T04:13:53;5.70;99.90
25716;DHT22;13573;50.936;4.328;2023-03-05T04:16:20;5.70;99.90
25716;DHT22;13573;50.936;4.328;2023-03-05T04:18:47;5.60;99.90
25716;DHT22;13573;50.936;4.328;2023-03-05T04:21:13;5.50;99.90
25716;DHT22;13573;50.936;4.328;2023-03-05T04:23:40;5.70;99.90
25716;DHT22;13573;50.936;4.328;2023-03-05T04:26:07;5.20;99.90
25716;DHT22;13573;50.936;4.328;2023-03-05T04:28:33;5.70;99.90
25716;DHT22;13573;50.936;4.328;2023-03-05T04:31:00;5.90;99.90
25716;DHT22;13573;50.936;4.328;2023-03-05T04:33:27;5.60;99.90
25716;DHT22;13573;50.936;4.328;2023-03-05T04:35:53;4.50;99.90
25716;DHT22;13573;50.936;4.328;2023-03-05T04:38:20;5.10;99.90
25716;DHT22;13573;50.936;4.328;2023-03-05T04:40:48;5.60;99.90
25716;DHT22;13573;50.936;4.328;2023-03-05T04:43:15;5.70;99.90
25716;DHT22;13573;50.936;4.328;2023-03-05T04:45:43;5.30;99.90
25716;DHT22;13573;50.936;4.328;2023-03-05T04:48:10;5.60;99.90
25716;DHT22;13573;50.936;4.328;2023-03-05T04:50:37;5.90;99.90
25716;DHT22;13573;50.936;4.328;2023-03-05T04:53:05;5.70;99.90
25716;DHT22;13573;50.936;4.328;2023-03-05T04:55:32;5.90;99.90
25716;DHT22;13573;50.936;4.328;2023-03-05T04:57:58;6.00;99.90
25716;DHT22;13573;50.936;4.328;2023-03-05T05:00:25;5.70;99.90
25716;DHT22;13573;50.936;4.328;2023-03-05T05:02:52;5.60;99.90
25716;DHT22;13573;50.936;4.328;2023-03-05T05:05:21;6.00;99.90
25716;DHT22;13573;50.936;4.328;2023-03-05T05:07:49;5.80;99.90
25716;DHT22;13573;50.936;4.328;2023-03-05T05:10:16;5.70;99.90
25716;DHT22;13573;50.936;4.328;2023-03-05T05:12:42;5.60;99.90
25716;DHT22;13573;50.936;4.328;2023-03-05T05:15:11;5.70;99.90
25716;DHT22;13573;50.936;4.328;2023-03-05T05:17:38;5.70;99.90
25716;DHT22;13573;50.936;4.328;2023-03-05T05:20:05;5.70;99.90
25716;DHT22;13573;50.936;4.328;2023-03-05T05:22:33;5.60;99.90
25716;DHT22;13573;50.936;4.328;2023-03-05T05:25:00;6.20;99.90
25716;DHT22;13573;50.936;4.328;2023-03-05T05:27:27;5.80;99.90
25716;DHT22;13573;50.936;4.328;2023-03-05T05:32:22;5.80;99.90
25716;DHT22;13573;50.936;4.328;2023-03-05T05:34:54;5.30;99.90
25716;DHT22;13573;50.936;4.328;2023-03-05T05:37:22;5.70;99.90
25716;DHT22;13573;50.936;4.328;2023-03-05T05:39:49;6.30;99.90
25716;DHT22;13573;50.936;4.328;2023-03-05T05:42:17;5.70;99.90
25716;DHT22;13573;50.936;4.328;2023-03-05T05:44:44;5.70;99.90
25716;DHT22;13573;50.936;4.328;2023-03-05T05:47:14;5.40;99.90
25716;DHT22;13573;50.936;4.328;2023-03-05T05:49:40;5.60;99.90
25716;DHT22;13573;50.936;4.328;2023-03-05T05:52:10;5.60;99.90
25716;DHT22;13573;50.936;4.328;2023-03-05T05:54:37;5.70;99.90
25716;DHT22;13573;50.936;4.328;2023-03-05T05:57:04;5.30;99.90
25716;DHT22;13573;50.936;4.328;2023-03-05T05:59:30;5.60;99.90
25716;DHT22;13573;50.936;4.328;2023-03-05T06:01:57;5.40;99.90
25716;DHT22;13573;50.936;4.328;2023-03-05T06:04:25;5.70;99.90
25716;DHT22;13573;50.936;4.328;2023-03-05T06:06:51;5.60;99.90
25716;DHT22;13573;50.936;4.328;2023-03-05T06:09:18;5.60;99.90
25716;DHT22;13573;50.936;4.328;2023-03-05T06:11:44;5.70;99.90
25716;DHT22;13573;50.936;4.328;2023-03-05T06:14:11;5.80;99.90
25716;DHT22;13573;50.936;4.328;2023-03-05T06:16:39;5.80;99.90
25716;DHT22;13573;50.936;4.328;2023-03-05T06:19:05;5.40;99.90
25716;DHT22;13573;50.936;4.328;2023-03-05T06:21:33;5.40;99.90
25716;DHT22;13573;50.936;4.328;2023-03-05T06:24:01;4.80;99.90
25716;DHT22;13573;50.936;4.328;2023-03-05T06:26:28;5.50;99.90
25716;DHT22;13573;50.936;4.328;2023-03-05T06:28:55;4.00;99.90
25716;DHT22;13573;50.936;4.328;2023-03-05T06:31:23;5.00;99.90
25716;DHT22;13573;50.936;4.328;2023-03-05T06:33:51;5.70;99.90
25716;DHT22;13573;50.936;4.328;2023-03-05T06:36:20;5.80;99.90
25716;DHT22;13573;50.936;4.328;2023-03-05T06:38:48;5.00;99.90
25716;DHT22;13573;50.936;4.328;2023-03-05T06:41:18;5.30;99.90
25716;DHT22;13573;50.936;4.328;2023-03-05T06:43:46;5.50;99.90
25716;DHT22;13573;50.936;4.328;2023-03-05T06:46:16;5.20;99.90
25716;DHT22;13573;50.936;4.328;2023-03-05T06:48:44;5.30;99.90
25716;DHT22;13573;50.936;4.328;2023-03-05T06:51:18;5.30;99.90
25716;DHT22;13573;50.936;4.328;2023-03-05T06:53:45;5.30;99.90
25716;DHT22;13573;50.936;4.328;2023-03-05T06:56:13;5.30;99.90
25716;DHT22;13573;50.936;4.328;2023-03-05T06:58:42;5.50;99.90
25716;DHT22;13573;50.936;4.328;2023-03-05T07:01:11;5.50;99.90
25716;DHT22;13573;50.936;4.328;2023-03-05T07:03:38;5.50;99.90
25716;DHT22;13573;50.936;4.328;2023-03-05T07:06:07;5.60;99.90
25716;DHT22;13573;50.936;4.328;2023-03-05T07:08:35;5.60;99.90
25716;DHT22;13573;50.936;4.328;2023-03-05T07:11:03;5.60;99.90
25716;DHT22;13573;50.936;4.328;2023-03-05T07:13:29;4.20;99.90
25716;DHT22;13573;50.936;4.328;2023-03-05T07:15:56;5.50;99.90
25716;DHT22;13573;50.936;4.328;2023-03-05T07:18:23;5.40;99.90
25716;DHT22;13573;50.936;4.328;2023-03-05T07:20:49;5.30;99.90
25716;DHT22;13573;50.936;4.328;2023-03-05T07:23:16;5.30;99.90
25716;DHT22;13573;50.936;4.328;2023-03-05T07:25:42;5.70;99.90
25716;DHT22;13573;50.936;4.328;2023-03-05T07:28:09;5.50;99.90
25716;DHT22;13573;50.936;4.328;2023-03-05T07:30:36;5.80;99.90
25716;DHT22;13573;50.936;4.328;2023-03-05T07:33:03;5.70;99.90
25716;DHT22;13573;50.936;4.328;2023-03-05T07:35:30;5.80;99.90
25716;DHT22;13573;50.936;4.328;2023-03-05T07:37:56;5.90;99.90
25716;DHT22;13573;50.936;4.328;2023-03-05T07:40:23;6.10;99.90
25716;DHT22;13573;50.936;4.328;2023-03-05T07:42:50;6.50;99.90
25716;DHT22;13573;50.936;4.328;2023-03-05T07:45:17;7.20;99.90
25716;DHT22;13573;50.936;4.328;2023-03-05T07:47:43;7.80;99.90
25716;DHT22;13573;50.936;4.328;2023-03-05T07:50:10;7.50;99.90
25716;DHT22;13573;50.936;4.328;2023-03-05T07:52:37;7.40;99.90
25716;DHT22;13573;50.936;4.328;2023-03-05T07:55:04;7.90;99.90
25716;DHT22;13573;50.936;4.328;2023-03-05T07:57:31;7.20;99.90
25716;DHT22;13573;50.936;4.328;2023-03-05T07:59:57;7.40;99.90
25716;DHT22;13573;50.936;4.328;2023-03-05T08:02:24;7.40;99.90
25716;DHT22;13573;50.936;4.328;2023-03-05T08:04:50;7.70;99.90
25716;DHT22;13573;50.936;4.328;2023-03-05T08:07:17;7.40;99.90
25716;DHT22;13573;50.936;4.328;2023-03-05T08:09:44;7.10;99.90
25716;DHT22;13573;50.936;4.328;2023-03-05T08:12:10;7.10;99.90
25716;DHT22;13573;50.936;4.328;2023-03-05T08:14:37;7.60;99.90
25716;DHT22;13573;50.936;4.328;2023-03-05T08:17:04;7.40;99.90
25716;DHT22;13573;50.936;4.328;2023-03-05T08:19:32;7.50;99.90
25716;DHT22;13573;50.936;4.328;2023-03-05T08:24:26;7.10;99.90
25716;DHT22;13573;50.936;4.328;2023-03-05T08:26:55;7.30;99.90
25716;DHT22;13573;50.936;4.328;2023-03-05T08:29:22;7.90;99.90
25716;DHT22;13573;50.936;4.328;2023-03-05T08:31:49;7.30;99.90
25716;DHT22;13573;50.936;4.328;2023-03-05T08:34:20;7.40;99.90
25716;DHT22;13573;50.936;4.328;2023-03-05T08:36:47;7.20;99.90
25716;DHT22;13573;50.936;4.328;2023-03-05T08:39:14;7.30;99.90
25716;DHT22;13573;50.936;4.328;2023-03-05T08:41:41;7.40;99.90
25716;DHT22;13573;50.936;4.328;2023-03-05T08:44:11;7.50;99.90
25716;DHT22;13573;50.936;4.328;2023-03-05T08:46:39;7.50;99.90
25716;DHT22;13573;50.936;4.328;2023-03-05T08:49:06;7.60;99.90
25716;DHT22;13573;50.936;4.328;2023-03-05T08:54:00;7.20;99.90
25716;DHT22;13573;50.936;4.328;2023-03-05T08:56:29;7.50;99.90
25716;DHT22;13573;50.936;4.328;2023-03-05T08:58:57;7.50;99.90
25716;DHT22;13573;50.936;4.328;2023-03-05T09:01:24;7.60;99.90
25716;DHT22;13573;50.936;4.328;2023-03-05T09:03:50;7.60;99.90
25716;DHT22;13573;50.936;4.328;2023-03-05T09:06:20;7.40;99.90
25716;DHT22;13573;50.936;4.328;2023-03-05T09:08:47;7.60;99.90
25716;DHT22;13573;50.936;4.328;2023-03-05T09:11:13;7.10;99.90
25716;DHT22;13573;50.936;4.328;2023-03-05T09:13:40;7.10;99.90
25716;DHT22;13573;50.936;4.328;2023-03-05T09:16:11;7.20;99.90
25716;DHT22;13573;50.936;4.328;2023-03-05T09:18:38;8.00;99.90
25716;DHT22;13573;50.936;4.328;2023-03-05T09:21:08;7.20;99.90
25716;DHT22;13573;50.936;4.328;2023-03-05T09:23:35;7.40;99.90
25716;DHT22;13573;50.936;4.328;2023-03-05T09:26:05;7.50;99.90
25716;DHT22;13573;50.936;4.328;2023-03-05T09:28:32;7.30;99.90
25716;DHT22;13573;50.936;4.328;2023-03-05T09:31:01;7.20;99.90
25716;DHT22;13573;50.936;4.328;2023-03-05T09:33:30;7.40;99.90
25716;DHT22;13573;50.936;4.328;2023-03-05T09:35:57;7.40;99.90
25716;DHT22;13573;50.936;4.328;2023-03-05T09:38:25;7.30;99.90
25716;DHT22;13573;50.936;4.328;2023-03-05T09:41:14;7.20;99.90
25716;DHT22;13573;50.936;4.328;2023-03-05T09:43:48;7.30;99.90
25716;DHT22;13573;50.936;4.328;2023-03-05T09:46:22;7.30;99.90
25716;DHT22;13573;50.936;4.328;2023-03-05T09:48:52;7.50;99.90
25716;DHT22;13573;50.936;4.328;2023-03-05T09:51:25;7.50;99.90
25716;DHT22;13573;50.936;4.328;2023-03-05T09:53:59;7.40;99.90
25716;DHT22;13573;50.936;4.328;2023-03-05T09:56:30;7.70;99.90
25716;DHT22;13573;50.936;4.328;2023-03-05T09:59:10;7.70;99.90
25716;DHT22;13573;50.936;4.328;2023-03-05T10:01:36;7.70;99.90
25716;DHT22;13573;50.936;4.328;2023-03-05T10:04:15;7.90;99.90
25716;DHT22;13573;50.936;4.328;2023-03-05T10:06:46;7.00;99.90
25716;DHT22;13573;50.936;4.328;2023-03-05T10:09:26;7.00;99.90
25716;DHT22;13573;50.936;4.328;2023-03-05T10:12:04;6.80;99.90
25716;DHT22;13573;50.936;4.328;2023-03-05T10:14:35;6.70;99.90
25716;DHT22;13573;50.936;4.328;2023-03-05T10:19:56;6.80;99.90
25716;DHT22;13573;50.936;4.328;2023-03-05T10:22:27;6.80;99.90
25716;DHT22;13573;50.936;4.328;2023-03-05T10:27:44;6.80;99.90
25716;DHT22;13573;50.936;4.328;2023-03-05T10:30:21;7.70;99.90
25716;DHT22;13573;50.936;4.328;2023-03-05T10:35:31;7.60;99.90
25716;DHT22;13573;50.936;4.328;2023-03-05T10:40:36;8.00;99.90
25716;DHT22;13573;50.936;4.328;2023-03-05T10:43:13;7.70;99.90
25716;DHT22;13573;50.936;4.328;2023-03-05T10:45:43;7.70;99.90
25716;DHT22;13573;50.936;4.328;2023-03-05T10:49:19;8.00;99.90
25716;DHT22;13573;50.936;4.328;2023-03-05T10:51:01;8.10;99.90
25716;DHT22;13573;50.936;4.328;2023-03-05T10:53:56;8.80;99.90
25716;DHT22;13573;50.936;4.328;2023-03-05T10:56:26;8.60;99.90
25716;DHT22;13573;50.936;4.328;2023-03-05T10:58:53;8.60;99.90
25716;DHT22;13573;50.936;4.328;2023-03-05T11:01:26;8.80;99.90
25716;DHT22;13573;50.936;4.328;2023-03-05T11:04:01;8.60;99.90
25716;DHT22;13573;50.936;4.328;2023-03-05T11:06:38;8.70;99.90
25716;DHT22;13573;50.936;4.328;2023-03-05T11:09:14;8.40;99.90
25716;DHT22;13573;50.936;4.328;2023-03-05T11:11:41;8.30;99.90
25716;DHT22;13573;50.936;4.328;2023-03-05T11:14:21;8.50;99.90
25716;DHT22;13573;50.936;4.328;2023-03-05T11:16:47;8.20;99.90
25716;DHT22;13573;50.936;4.328;2023-03-05T11:19:18;8.20;99.90
25716;DHT22;13573;50.936;4.328;2023-03-05T11:22:11;8.20;99.90
25716;DHT22;13573;50.936;4.328;2023-03-05T11:24:17;8.70;99.90
25716;DHT22;13573;50.936;4.328;2023-03-05T11:26:51;9.40;99.90
25716;DHT22;13573;50.936;4.328;2023-03-05T11:29:21;10.60;99.90
25716;DHT22;13573;50.936;4.328;2023-03-05T11:31:49;10.10;99.90
25716;DHT22;13573;50.936;4.328;2023-03-05T11:34:29;11.10;99.90
25716;DHT22;13573;50.936;4.328;2023-03-05T11:37:01;11.00;99.90
25716;DHT22;13573;50.936;4.328;2023-03-05T11:39:29;10.80;99.90
25716;DHT22;13573;50.936;4.328;2023-03-05T11:42:02;10.70;99.90
25716;DHT22;13573;50.936;4.328;2023-03-05T11:44:36;11.30;99.90
25716;DHT22;13573;50.936;4.328;2023-03-05T11:47:25;11.00;99.90
25716;DHT22;13573;50.936;4.328;2023-03-05T11:49:59;10.10;99.90
25716;DHT22;13573;50.936;4.328;2023-03-05T11:52:30;10.90;99.90
25716;DHT22;13573;50.936;4.328;2023-03-05T11:55:02;9.80;99.90
25716;DHT22;13573;50.936;4.328;2023-03-05T11:57:39;10.50;99.90
25716;DHT22;13573;50.936;4.328;2023-03-05T12:00:05;9.90;99.90
25716;DHT22;13573;50.936;4.328;2023-03-05T12:02:36;9.00;99.90
25716;DHT22;13573;50.936;4.328;2023-03-05T12:05:05;9.00;99.90
25716;DHT22;13573;50.936;4.328;2023-03-05T12:07:38;10.60;99.90
25716;DHT22;13573;50.936;4.328;2023-03-05T12:10:06;9.00;99.90
25716;DHT22;13573;50.936;4.328;2023-03-05T12:12:41;9.20;99.90
25716;DHT22;13573;50.936;4.328;2023-03-05T12:15:30;8.90;99.90
25716;DHT22;13573;50.936;4.328;2023-03-05T12:18:05;8.80;99.90
25716;DHT22;13573;50.936;4.328;2023-03-05T12:23:25;7.60;99.90
25716;DHT22;13573;50.936;4.328;2023-03-05T12:25:55;7.60;99.90
25716;DHT22;13573;50.936;4.328;2023-03-05T12:31:25;7.40;99.90
25716;DHT22;13573;50.936;4.328;2023-03-05T12:33:52;7.90;99.90
25716;DHT22;13573;50.936;4.328;2023-03-05T12:36:35;7.70;99.90
25716;DHT22;13573;50.936;4.328;2023-03-05T12:41:46;7.60;99.90
25716;DHT22;13573;50.936;4.328;2023-03-05T12:44:17;7.60;99.90
25716;DHT22;13573;50.936;4.328;2023-03-05T12:47:13;7.80;99.90
25716;DHT22;13573;50.936;4.328;2023-03-05T12:49:36;7.40;99.90
25716;DHT22;13573;50.936;4.328;2023-03-05T12:52:02;7.40;99.90
25716;DHT22;13573;50.936;4.328;2023-03-05T12:54:33;7.60;99.90
25716;DHT22;13573;50.936;4.328;2023-03-05T12:57:03;7.10;99.90
25716;DHT22;13573;50.936;4.328;2023-03-05T12:59:52;7.30;99.90
25716;DHT22;13573;50.936;4.328;2023-03-05T13:02:32;7.50;99.90
25716;DHT22;13573;50.936;4.328;2023-03-05T13:05:03;7.20;99.90
25716;DHT22;13573;50.936;4.328;2023-03-05T13:07:30;7.40;99.90
25716;DHT22;13573;50.936;4.328;2023-03-05T13:09:58;7.50;99.90
25716;DHT22;13573;50.936;4.328;2023-03-05T13:12:28;7.30;99.90
25716;DHT22;13573;50.936;4.328;2023-03-05T13:15:01;6.10;99.90
25716;DHT22;13573;50.936;4.328;2023-03-05T13:17:33;8.00;99.90
25716;DHT22;13573;50.936;4.328;2023-03-05T13:20:02;7.10;99.90
25716;DHT22;13573;50.936;4.328;2023-03-05T13:22:31;7.20;99.90
25716;DHT22;13573;50.936;4.328;2023-03-05T13:25:10;7.20;99.90
25716;DHT22;13573;50.936;4.328;2023-03-05T13:27:34;7.10;99.90
25716;DHT22;13573;50.936;4.328;2023-03-05T13:30:01;6.70;99.90
25716;DHT22;13573;50.936;4.328;2023-03-05T13:32:30;6.80;99.90
25716;DHT22;13573;50.936;4.328;2023-03-05T13:34:58;6.50;99.90
25716;DHT22;13573;50.936;4.328;2023-03-05T13:37:30;6.50;99.90
25716;DHT22;13573;50.936;4.328;2023-03-05T13:40:02;6.40;99.90
25716;DHT22;13573;50.936;4.328;2023-03-05T13:42:33;6.40;99.90
25716;DHT22;13573;50.936;4.328;2023-03-05T13:45:04;5.40;99.90
25716;DHT22;13573;50.936;4.328;2023-03-05T13:47:33;6.60;99.90
25716;DHT22;13573;50.936;4.328;2023-03-05T13:50:04;5.90;99.90
25716;DHT22;13573;50.936;4.328;2023-03-05T13:52:35;6.40;99.90
25716;DHT22;13573;50.936;4.328;2023-03-05T13:55:09;6.60;99.90
25716;DHT22;13573;50.936;4.328;2023-03-05T13:57:40;5.40;99.90
25716;DHT22;13573;50.936;4.328;2023-03-05T14:02:42;6.90;99.90
25716;DHT22;13573;50.936;4.328;2023-03-05T14:05:13;7.00;99.90
25716;DHT22;13573;50.936;4.328;2023-03-05T14:07:41;7.20;99.90
25716;DHT22;13573;50.936;4.328;2023-03-05T14:12:48;7.30;99.90
25716;DHT22;13573;50.936;4.328;2023-03-05T14:15:25;7.00;99.90
25716;DHT22;13573;50.936;4.328;2023-03-05T14:20:28;6.10;99.90
25716;DHT22;13573;50.936;4.328;2023-03-05T14:22:58;7.40;99.90
25716;DHT22;13573;50.936;4.328;2023-03-05T14:25:35;7.10;99.90
25716;DHT22;13573;50.936;4.328;2023-03-05T14:30:47;7.10;99.90
25716;DHT22;13573;50.936;4.328;2023-03-05T14:33:21;6.90;99.90
25716;DHT22;13573;50.936;4.328;2023-03-05T14:35:49;6.10;99.90
25716;DHT22;13573;50.936;4.328;2023-03-05T14:38:22;7.10;99.90
25716;DHT22;13573;50.936;4.328;2023-03-05T14:40:49;7.20;99.90
25716;DHT22;13573;50.936;4.328;2023-03-05T14:43:16;6.20;99.90
25716;DHT22;13573;50.936;4.328;2023-03-05T14:45:43;7.40;99.90
25716;DHT22;13573;50.936;4.328;2023-03-05T14:48:12;6.30;99.90
25716;DHT22;13573;50.936;4.328;2023-03-05T14:50:44;7.30;99.90
25716;DHT22;13573;50.936;4.328;2023-03-05T14:53:18;7.80;99.90
25716;DHT22;13573;50.936;4.328;2023-03-05T14:55:47;7.70;99.90
25716;DHT22;13573;50.936;4.328;2023-03-05T14:58:18;6.60;99.90
25716;DHT22;13573;50.936;4.328;2023-03-05T15:00:47;8.00;99.90
25716;DHT22;13573;50.936;4.328;2023-03-05T15:05:43;7.50;99.90
25716;DHT22;13573;50.936;4.328;2023-03-05T15:08:13;7.40;99.90
25716;DHT22;13573;50.936;4.328;2023-03-05T15:10:41;7.70;99.90
25716;DHT22;13573;50.936;4.328;2023-03-05T15:13:08;7.50;99.90
25716;DHT22;13573;50.936;4.328;2023-03-05T15:15:34;7.50;99.90
25716;DHT22;13573;50.936;4.328;2023-03-05T15:18:01;7.50;99.90
25716;DHT22;13573;50.936;4.328;2023-03-05T15:20:29;7.60;99.90
25716;DHT22;13573;50.936;4.328;2023-03-05T15:22:55;7.30;99.90
25716;DHT22;13573;50.936;4.328;2023-03-05T15:25:23;7.10;99.90
25716;DHT22;13573;50.936;4.328;2023-03-05T15:27:51;7.10;99.90
25716;DHT22;13573;50.936;4.328;2023-03-05T15:30:27;7.20;99.90
25716;DHT22;13573;50.936;4.328;2023-03-05T15:32:55;7.10;99.90
25716;DHT22;13573;50.936;4.328;2023-03-05T15:35:23;7.50;99.90
25716;DHT22;13573;50.936;4.328;2023-03-05T15:37:50;7.40;99.90
25716;DHT22;13573;50.936;4.328;2023-03-05T15:40:17;7.10;99.90
25716;DHT22;13573;50.936;4.328;2023-03-05T15:42:46;6.70;99.90
25716;DHT22;13573;50.936;4.328;2023-03-05T15:45:13;7.10;99.90
25716;DHT22;13573;50.936;4.328;2023-03-05T15:47:40;7.20;99.90
25716;DHT22;13573;50.936;4.328;2023-03-05T15:50:07;6.00;99.90
25716;DHT22;13573;50.936;4.328;2023-03-05T15:52:34;7.30;99.90
25716;DHT22;13573;50.936;4.328;2023-03-05T15:55:01;5.90;99.90
25716;DHT22;13573;50.936;4.328;2023-03-05T15:57:28;6.20;99.90
25716;DHT22;13573;50.936;4.328;2023-03-05T15:59:54;7.40;99.90
25716;DHT22;13573;50.936;4.328;2023-03-05T16:02:21;7.40;99.90
25716;DHT22;13573;50.936;4.328;2023-03-05T16:04:49;7.50;99.90
25716;DHT22;13573;50.936;4.328;2023-03-05T16:07:16;7.10;99.90
25716;DHT22;13573;50.936;4.328;2023-03-05T16:09:45;7.00;99.90
25716;DHT22;13573;50.936;4.328;2023-03-05T16:12:17;6.60;99.90
25716;DHT22;13573;50.936;4.328;2023-03-05T16:14:44;6.60;99.90
25716;DHT22;13573;50.936;4.328;2023-03-05T16:17:12;6.60;99.90
25716;DHT22;13573;50.936;4.328;2023-03-05T16:19:43;6.90;99.90
25716;DHT22;13573;50.936;4.328;2023-03-05T16:22:11;7.10;99.90
25716;DHT22;13573;50.936;4.328;2023-03-05T16:24:38;7.10;99.90
25716;DHT22;13573;50.936;4.328;2023-03-05T16:27:04;6.60;99.90
25716;DHT22;13573;50.936;4.328;2023-03-05T16:29:32;6.80;99.90
25716;DHT22;13573;50.936;4.328;2023-03-05T16:32:02;6.30;99.90
25716;DHT22;13573;50.936;4.328;2023-03-05T16:34:30;6.50;99.90
25716;DHT22;13573;50.936;4.328;2023-03-05T16:36:59;6.20;99.90
25716;DHT22;13573;50.936;4.328;2023-03-05T16:39:29;5.90;99.90